createdAt,value
2023-04-01T00:01:48.156Z,99130.97
2023-04-01T00:04:14.870Z,99115.28
2023-04-01T00:06:41.641Z,99115.81
2023-04-01T00:09:08.433Z,99126.91
2023-04-01T00:11:35.022Z,99129.25
2023-04-01T00:14:01.748Z,99128.06
2023-04-01T00:16:28.626Z,99135.38
2023-04-01T00:18:55.369Z,99141.69
2023-04-01T00:21:23.277Z,99134.06
2023-04-01T00:23:51.698Z,99137.72
2023-04-01T00:26:21.525Z,99133.13
2023-04-01T00:28:48.602Z,99141.41
2023-04-01T00:31:15.731Z,99147.69
2023-04-01T00:33:42.415Z,99128.72
2023-04-01T00:36:14.237Z,99144.22
2023-04-01T00:38:42.727Z,99144.59
2023-04-01T00:41:15.171Z,99157.00
2023-04-01T00:43:46.596Z,99159.34
2023-04-01T00:46:13.320Z,99133.63
2023-04-01T00:48:45.634Z,99153.69
2023-04-01T00:51:19.347Z,99143.19
2023-04-01T00:53:49.675Z,99145.09
2023-04-01T00:56:56.934Z,99142.16
2023-04-01T00:59:28.144Z,99167.69
2023-04-01T01:01:55.047Z,99142.06
2023-04-01T01:04:22.962Z,99160.56
2023-04-01T01:06:58.347Z,99172.31
2023-04-01T01:09:59.131Z,99173.16
2023-04-01T01:12:43.306Z,99137.44
2023-04-01T01:15:48.259Z,99171.69
2023-04-01T01:18:36.621Z,99175.41
2023-04-01T01:21:31.587Z,99179.66
2023-04-01T01:24:13.365Z,99186.78
2023-04-01T01:26:42.877Z,99188.59
2023-04-01T01:29:21.729Z,99174.31
2023-04-01T01:32:12.700Z,99181.63
2023-04-01T01:34:48.117Z,99190.00
2023-04-01T01:37:20.155Z,99162.91
2023-04-01T01:39:50.762Z,99185.03
2023-04-01T01:42:22.898Z,99190.25
2023-04-01T01:44:53.200Z,99190.84
2023-04-01T01:47:24.262Z,99042.41
2023-04-01T01:49:52.659Z,99106.66
2023-04-01T01:52:23.053Z,99199.88
2023-04-01T01:54:55.168Z,99198.34
2023-04-01T01:57:29.656Z,99187.25
2023-04-01T02:00:04.151Z,99200.44
2023-04-01T02:02:33.085Z,99202.50
2023-04-01T02:04:59.935Z,99202.31
2023-04-01T02:07:32.591Z,99204.19
2023-04-01T02:09:59.269Z,99202.66
2023-04-01T02:12:26.149Z,99205.94
2023-04-01T02:14:55.086Z,99203.88
2023-04-01T02:17:24.620Z,99191.47
2023-04-01T02:19:57.123Z,99221.47
2023-04-01T02:22:36.936Z,99216.66
2023-04-01T02:25:12.109Z,99195.44
2023-04-01T02:27:40.189Z,99214.88
2023-04-01T02:30:10.043Z,99200.31
2023-04-01T02:32:39.331Z,99220.31
2023-04-01T02:35:12.898Z,99216.47
2023-04-01T02:37:43.537Z,99227.47
2023-04-01T02:40:13.333Z,99207.34
2023-04-01T02:42:40.472Z,99163.09
2023-04-01T02:45:08.124Z,99222.75
2023-04-01T02:47:36.917Z,99238.28
2023-04-01T02:50:03.993Z,99210.34
2023-04-01T02:52:33.571Z,99229.41
2023-04-01T02:55:00.157Z,99218.78
2023-04-01T02:57:27.007Z,99221.53
2023-04-01T02:59:53.716Z,99232.06
2023-04-01T03:02:23.131Z,99235.06
2023-04-01T03:04:49.817Z,99201.69
2023-04-01T03:07:16.555Z,99239.66
2023-04-01T03:09:43.315Z,99243.22
2023-04-01T03:12:09.977Z,99244.47
2023-04-01T03:14:36.628Z,99238.72
2023-04-01T03:17:03.285Z,99261.66
2023-04-01T03:19:30.072Z,99252.63
2023-04-01T03:21:56.700Z,99240.69
2023-04-01T03:24:23.442Z,99242.00
2023-04-01T03:26:50.378Z,99221.41
2023-04-01T03:29:17.339Z,99235.13
2023-04-01T03:31:44.314Z,99258.34
2023-04-01T03:34:11.464Z,99230.03
2023-04-01T03:36:38.266Z,99268.19
2023-04-01T03:39:06.102Z,99269.97
2023-04-01T03:41:36.056Z,99270.16
2023-04-01T03:44:05.368Z,99267.06
2023-04-01T03:46:34.415Z,99268.59
2023-04-01T03:49:01.188Z,99248.44
2023-04-01T03:51:30.350Z,99273.53
2023-04-01T03:53:56.976Z,99261.53
2023-04-01T03:56:23.574Z,99138.22
2023-04-01T03:58:50.216Z,99250.97
2023-04-01T04:01:22.792Z,99253.00
2023-04-01T04:03:53.616Z,99277.56
2023-04-01T04:06:20.709Z,99288.47
2023-04-01T04:08:50.193Z,99269.94
2023-04-01T04:11:17.245Z,99218.91
2023-04-01T04:13:44.433Z,99289.97
2023-04-01T04:16:12.724Z,99288.66
2023-04-01T04:18:39.585Z,99296.13
2023-04-01T04:21:12.414Z,99264.13
2023-04-01T04:23:44.311Z,99302.63
2023-04-01T04:26:13.861Z,99172.59
2023-04-01T04:28:40.732Z,99307.59
2023-04-01T04:31:08.778Z,99311.81
2023-04-01T04:33:36.305Z,99306.91
2023-04-01T04:36:05.469Z,99301.00
2023-04-01T04:38:34.446Z,99310.69
2023-04-01T04:41:01.123Z,99313.03
2023-04-01T04:43:28.045Z,99331.41
2023-04-01T04:45:54.812Z,99316.97
2023-04-01T04:48:24.675Z,99318.56
2023-04-01T04:50:52.148Z,99256.75
2023-04-01T04:53:21.213Z,99339.41
2023-04-01T04:55:50.450Z,99339.41
2023-04-01T04:58:18.264Z,99344.84
2023-04-01T05:00:45.572Z,99339.06
2023-04-01T05:03:12.960Z,99350.59
2023-04-01T05:05:40.625Z,99345.53
2023-04-01T05:08:07.557Z,99358.28
2023-04-01T05:10:34.383Z,99354.91
2023-04-01T05:13:01.050Z,99348.00
2023-04-01T05:15:27.685Z,99212.13
2023-04-01T05:17:56.471Z,99373.78
2023-04-01T05:20:23.063Z,99357.69
2023-04-01T05:22:49.770Z,99352.25
2023-04-01T05:25:18.796Z,99374.44
2023-04-01T05:27:45.709Z,99141.00
2023-04-01T05:30:12.767Z,99377.78
2023-04-01T05:32:39.500Z,99397.94
2023-04-01T05:35:08.963Z,99392.84
2023-04-01T05:37:36.266Z,99381.66
2023-04-01T05:40:06.298Z,99386.69
2023-04-01T05:42:33.060Z,99408.44
2023-04-01T05:45:03.404Z,99390.25
2023-04-01T05:47:30.494Z,99392.16
2023-04-01T05:49:59.537Z,99405.59
2023-04-01T05:52:26.421Z,99401.94
2023-04-01T05:54:53.220Z,99424.53
2023-04-01T05:57:19.945Z,99385.72
2023-04-01T05:59:49.157Z,99428.09
2023-04-01T06:02:21.020Z,99402.50
2023-04-01T06:04:47.824Z,99425.78
2023-04-01T06:07:16.394Z,99422.72
2023-04-01T06:09:47.026Z,99440.16
2023-04-01T06:12:30.876Z,99458.19
2023-04-01T06:15:09.789Z,99455.47
2023-04-01T06:17:56.487Z,99434.84
2023-04-01T06:20:23.136Z,99470.63
2023-04-01T06:23:21.241Z,99408.41
2023-04-01T06:25:47.719Z,99486.63
2023-04-01T06:28:59.146Z,99469.63
2023-04-01T06:31:35.016Z,99487.63
2023-04-01T06:34:20.373Z,99503.97
2023-04-01T06:37:08.037Z,99468.66
2023-04-01T06:39:54.477Z,99480.91
2023-04-01T06:42:49.057Z,99501.25
2023-04-01T06:45:44.561Z,99486.66
2023-04-01T06:48:41.822Z,99510.78
2023-04-01T06:51:25.826Z,99509.56
2023-04-01T06:54:27.028Z,99509.91
2023-04-01T06:57:02.362Z,99495.69
2023-04-01T06:59:36.846Z,99514.41
2023-04-01T07:02:22.092Z,99499.25
2023-04-01T07:04:57.140Z,99498.28
2023-04-01T07:07:51.125Z,99537.31
2023-04-01T07:10:37.371Z,99539.00
2023-04-01T07:13:11.934Z,99533.91
2023-04-01T07:15:42.437Z,99551.97
2023-04-01T07:18:14.843Z,99550.75
2023-04-01T07:20:44.506Z,99563.34
2023-04-01T07:23:29.634Z,99526.66
2023-04-01T07:26:15.775Z,99560.75
2023-04-01T07:28:42.508Z,99558.56
2023-04-01T07:31:31.968Z,99568.38
2023-04-01T07:34:15.418Z,99570.22
2023-04-01T07:36:48.240Z,99569.97
2023-04-01T07:39:31.430Z,99574.53
2023-04-01T07:42:21.533Z,99572.63
2023-04-01T07:45:13.109Z,99582.59
2023-04-01T07:47:50.562Z,99584.44
2023-04-01T07:50:29.617Z,99588.03
2023-04-01T07:53:19.355Z,99593.09
2023-04-01T07:55:58.583Z,99592.94
2023-04-01T07:58:54.383Z,99601.13
2023-04-01T08:01:43.303Z,99604.53
2023-04-01T08:04:26.730Z,99613.72
2023-04-01T08:07:21.469Z,99561.09
2023-04-01T08:10:09.482Z,99620.25
2023-04-01T08:12:48.755Z,99618.94
2023-04-01T08:15:30.155Z,99625.72
2023-04-01T08:18:06.866Z,99631.16
2023-04-01T08:20:51.547Z,99643.78
2023-04-01T08:23:25.749Z,99649.78
2023-04-01T08:26:03.808Z,99647.41
2023-04-01T08:28:47.536Z,99623.78
2023-04-01T08:31:54.895Z,99653.72
2023-04-01T08:34:27.277Z,99657.81
2023-04-01T08:37:02.632Z,99668.72
2023-04-01T08:39:47.405Z,99672.63
2023-04-01T08:42:20.948Z,99664.84
2023-04-01T08:45:08.946Z,99681.13
2023-04-01T08:48:02.399Z,99680.78
2023-04-01T08:50:40.342Z,99680.91
2023-04-01T08:53:28.519Z,99690.09
2023-04-01T08:56:19.153Z,99693.84
2023-04-01T08:59:10.556Z,99699.81
2023-04-01T09:01:57.879Z,99694.00
2023-04-01T09:04:46.302Z,99706.41
2023-04-01T09:07:55.850Z,99686.34
2023-04-01T09:10:50.670Z,99713.22
2023-04-01T09:13:41.797Z,99719.22
2023-04-01T09:16:27.531Z,99725.88
2023-04-01T09:19:00.982Z,99722.47
2023-04-01T09:21:42.610Z,99736.78
2023-04-01T09:24:30.855Z,99732.19
2023-04-01T09:27:04.891Z,99717.25
2023-04-01T09:29:59.434Z,99743.94
2023-04-01T09:33:05.353Z,99737.09
2023-04-01T09:35:50.794Z,99747.66
2023-04-01T09:38:32.419Z,99749.00
2023-04-01T09:41:08.485Z,99748.81
2023-04-01T09:44:14.933Z,99755.59
2023-04-01T09:47:09.966Z,99756.13
2023-04-01T09:50:03.999Z,99762.19
2023-04-01T09:52:51.464Z,99760.63
2023-04-01T09:55:37.605Z,99754.81
2023-04-01T09:58:25.982Z,99755.63
2023-04-01T10:01:29.900Z,99760.72
2023-04-01T10:04:18.437Z,99762.03
2023-04-01T10:07:23.222Z,99766.97
2023-04-01T10:10:16.089Z,99768.16
2023-04-01T10:13:03.652Z,99776.91
2023-04-01T10:15:42.438Z,99770.59
2023-04-01T10:18:33.559Z,99780.78
2023-04-01T10:21:26.312Z,99788.16
2023-04-01T10:24:11.226Z,99797.91
2023-04-01T10:26:59.506Z,99798.06
2023-04-01T10:29:57.583Z,99793.44
2023-04-01T10:33:01.518Z,99794.75
2023-04-01T10:36:07.006Z,99789.22
2023-04-01T10:38:45.979Z,99800.97
2023-04-01T10:41:43.845Z,99802.97
2023-04-01T10:44:22.534Z,99794.72
2023-04-01T10:47:11.040Z,99796.16
2023-04-01T10:50:14.985Z,99803.44
2023-04-01T10:53:09.663Z,99803.25
2023-04-01T10:55:50.216Z,99806.25
2023-04-01T10:58:43.989Z,99808.44
2023-04-01T11:01:22.922Z,99810.69
2023-04-01T11:04:20.075Z,99817.72
2023-04-01T11:07:31.473Z,99821.03
2023-04-01T11:10:22.275Z,99822.72
2023-04-01T11:13:17.885Z,99824.72
2023-04-01T11:16:08.786Z,99822.44
2023-04-01T11:18:44.357Z,99828.97
2023-04-01T11:21:38.448Z,99818.22
2023-04-01T11:24:22.716Z,99832.84
2023-04-01T11:26:57.039Z,99840.84
2023-04-01T11:29:26.352Z,99846.41
2023-04-01T11:32:04.195Z,99839.81
2023-04-01T11:34:49.904Z,99847.88
2023-04-01T11:37:16.395Z,99852.81
2023-04-01T11:39:43.229Z,99852.97
2023-04-01T11:42:34.220Z,99858.44
2023-04-01T11:45:24.974Z,99862.03
2023-04-01T11:48:12.680Z,99859.94
2023-04-01T11:51:10.798Z,99869.81
2023-04-01T11:53:57.932Z,99828.53
2023-04-01T11:56:48.930Z,99874.66
2023-04-01T11:59:42.529Z,99876.19
2023-04-01T12:03:09.265Z,99878.41
2023-04-01T12:05:49.010Z,99898.59
2023-04-01T12:08:46.644Z,99896.53
2023-04-01T12:11:47.048Z,99885.91
2023-04-01T12:14:48.282Z,99898.50
2023-04-01T12:17:44.416Z,99900.22
2023-04-01T12:20:32.446Z,99911.22
2023-04-01T12:23:25.294Z,99911.38
2023-04-01T12:25:58.770Z,99907.34
2023-04-01T12:28:50.405Z,99914.34
2023-04-01T12:31:30.487Z,99904.59
2023-04-01T12:34:23.174Z,99921.78
2023-04-01T12:36:53.898Z,99915.47
2023-04-01T12:39:35.228Z,99922.13
2023-04-01T12:42:24.358Z,99922.16
2023-04-01T12:45:10.109Z,99926.56
2023-04-01T12:48:12.054Z,99918.09
2023-04-01T12:51:31.465Z,99934.19
2023-04-01T12:54:17.320Z,99942.38
2023-04-01T12:57:02.972Z,99937.75
2023-04-01T12:59:30.280Z,99943.03
2023-04-01T13:02:11.666Z,99948.16
2023-04-01T13:04:44.495Z,99943.22
2023-04-01T13:07:24.813Z,99950.56
2023-04-01T13:10:04.027Z,99958.59
2023-04-01T13:12:59.763Z,99958.22
2023-04-01T13:15:41.822Z,99965.69
2023-04-01T13:18:21.182Z,99966.56
2023-04-01T13:21:10.030Z,99976.63
2023-04-01T13:24:02.297Z,99964.19
2023-04-01T13:26:58.293Z,99954.84
2023-04-01T13:30:08.802Z,99973.75
2023-04-01T13:33:01.979Z,99978.19
2023-04-01T13:35:58.617Z,99970.97
2023-04-01T13:38:54.850Z,99979.09
2023-04-01T13:41:30.843Z,99987.69
2023-04-01T13:44:29.076Z,99989.06
2023-04-01T13:47:18.493Z,99984.13
2023-04-01T13:50:11.166Z,99993.88
2023-04-01T13:52:56.051Z,99999.22
2023-04-01T13:56:10.728Z,99997.56
2023-04-01T13:59:08.952Z,100006.44
2023-04-01T14:01:57.385Z,100010.03
2023-04-01T14:04:54.858Z,100011.38
2023-04-01T14:07:43.690Z,100013.44
2023-04-01T14:10:50.422Z,100020.09
2023-04-01T14:13:29.744Z,100018.09
2023-04-01T14:16:13.148Z,100012.97
2023-04-01T14:18:55.005Z,100025.44
2023-04-01T14:21:24.548Z,100026.59
2023-04-01T14:24:29.370Z,100030.19
2023-04-01T14:27:09.164Z,100028.13
2023-04-01T14:29:48.936Z,100025.56
2023-04-01T14:32:47.749Z,100039.22
2023-04-01T14:35:17.445Z,100039.75
2023-04-01T14:37:56.142Z,100039.09
2023-04-01T14:40:37.732Z,100044.72
2023-04-01T14:43:26.325Z,100053.09
2023-04-01T14:46:07.996Z,100052.44
2023-04-01T14:48:53.977Z,100039.81
2023-04-01T14:51:34.676Z,100052.09
2023-04-01T14:54:23.870Z,100050.03
2023-04-01T14:57:04.490Z,100058.22
2023-04-01T14:59:31.220Z,100059.91
2023-04-01T15:02:34.922Z,100062.22
2023-04-01T15:05:32.324Z,100063.84
2023-04-01T15:08:17.473Z,100070.63
2023-04-01T15:11:02.298Z,100080.22
2023-04-01T15:13:32.004Z,100084.03
2023-04-01T15:16:21.806Z,100090.69
2023-04-01T15:19:03.747Z,100088.66
2023-04-01T15:22:06.741Z,100083.72
2023-04-01T15:25:06.824Z,100091.22
2023-04-01T15:27:45.944Z,100072.66
2023-04-01T15:30:19.662Z,100087.81
2023-04-01T15:33:15.983Z,100090.06
2023-04-01T15:35:42.619Z,100099.44
2023-04-01T15:38:46.671Z,100094.88
2023-04-01T15:41:44.124Z,100090.75
2023-04-01T15:44:48.239Z,100104.41
2023-04-01T15:47:26.940Z,100109.38
2023-04-01T15:49:58.232Z,100113.47
2023-04-01T15:53:02.526Z,100117.94
2023-04-01T15:55:38.297Z,100109.09
2023-04-01T15:58:32.119Z,100116.91
2023-04-01T16:01:26.950Z,100126.50
2023-04-01T16:04:16.826Z,100124.28
2023-04-01T16:07:03.730Z,100107.25
2023-04-01T16:09:56.182Z,100135.56
2023-04-01T16:12:38.061Z,100142.91
2023-04-01T16:15:13.808Z,100121.59
2023-04-01T16:18:14.193Z,100144.09
2023-04-01T16:20:58.798Z,100148.53
2023-04-01T16:23:43.857Z,100157.91
2023-04-01T16:26:28.932Z,100154.53
2023-04-01T16:28:57.779Z,100172.78
2023-04-01T16:31:54.817Z,100153.31
2023-04-01T16:34:44.453Z,100170.41
2023-04-01T16:37:17.196Z,100184.56
2023-04-01T16:40:30.951Z,100173.13
2023-04-01T16:43:17.781Z,100178.78
2023-04-01T16:45:55.194Z,100167.50
2023-04-01T16:48:29.287Z,100200.63
2023-04-01T16:51:20.880Z,100207.97
2023-04-01T16:54:14.275Z,100190.53
2023-04-01T16:56:48.650Z,100217.34
2023-04-01T16:59:25.223Z,100207.75
2023-04-01T17:02:01.197Z,100234.56
2023-04-01T17:04:42.890Z,100229.63
2023-04-01T17:07:27.819Z,100237.84
2023-04-01T17:10:22.711Z,100239.34
2023-04-01T17:13:31.593Z,100247.22
2023-04-01T17:16:07.411Z,100253.84
2023-04-01T17:18:51.242Z,100251.44
2023-04-01T17:21:40.316Z,100268.88
2023-04-01T17:24:28.525Z,100285.25
2023-04-01T17:27:24.505Z,100289.16
2023-04-01T17:30:01.008Z,100245.59
2023-04-01T17:32:58.013Z,100301.78
2023-04-01T17:35:42.292Z,100301.44
2023-04-01T17:38:33.753Z,100313.91
2023-04-01T17:41:16.977Z,100328.59
2023-04-01T17:43:52.742Z,100321.56
2023-04-01T17:46:46.141Z,100330.09
2023-04-01T17:49:37.567Z,100337.59
2023-04-01T17:52:18.704Z,100345.44
2023-04-01T17:55:08.669Z,100353.22
2023-04-01T17:57:53.595Z,100353.38
2023-04-01T18:01:01.505Z,100361.03
2023-04-01T18:04:20.876Z,100370.75
2023-04-01T18:07:21.367Z,100382.34
2023-04-01T18:09:53.702Z,100381.50
2023-04-01T18:12:29.285Z,100401.59
2023-04-01T18:14:58.792Z,100404.66
2023-04-01T18:17:42.182Z,100375.03
2023-04-01T18:20:30.720Z,100411.63
2023-04-01T18:23:12.305Z,100424.53
2023-04-01T18:25:47.784Z,100418.34
2023-04-01T18:28:36.063Z,100439.69
2023-04-01T18:31:02.764Z,100446.31
2023-04-01T18:33:42.097Z,100452.09
2023-04-01T18:36:27.087Z,100455.31
2023-04-01T18:38:58.233Z,100463.81
2023-04-01T18:41:53.937Z,100471.69
2023-04-01T18:44:47.072Z,100473.09
2023-04-01T18:48:07.939Z,100488.19
2023-04-01T18:50:49.559Z,100495.28
2023-04-01T18:53:48.119Z,100504.78
2023-04-01T18:56:37.165Z,100476.97
2023-04-01T18:59:43.160Z,100509.84
2023-04-01T19:02:25.848Z,100522.63
2023-04-01T19:05:09.101Z,100531.09
2023-04-01T19:07:38.637Z,100538.28
2023-04-01T19:10:17.373Z,100545.56
2023-04-01T19:12:59.080Z,100546.06
2023-04-01T19:15:34.120Z,100552.53
2023-04-01T19:18:16.440Z,100557.97
2023-04-01T19:20:57.899Z,100568.47
2023-04-01T19:23:55.364Z,100577.97
2023-04-01T19:26:29.148Z,100572.41
2023-04-01T19:28:58.305Z,100580.44
2023-04-01T19:31:42.463Z,100583.31
2023-04-01T19:34:47.767Z,100594.50
2023-04-01T19:37:30.566Z,100605.56
2023-04-01T19:40:24.708Z,100587.56
2023-04-01T19:43:32.916Z,100597.38
2023-04-01T19:46:02.271Z,100614.75
2023-04-01T19:49:06.540Z,100619.34
2023-04-01T19:52:07.539Z,100624.94
2023-04-01T19:54:59.339Z,100634.00
2023-04-01T19:57:41.752Z,100632.56
2023-04-01T20:00:32.728Z,100644.78
2023-04-01T20:03:02.694Z,100637.75
2023-04-01T20:05:57.227Z,100617.47
2023-04-01T20:08:37.743Z,100663.16
2023-04-01T20:12:06.434Z,100663.59
2023-04-01T20:14:51.205Z,100670.34
2023-04-01T20:17:33.688Z,100690.41
2023-04-01T20:20:02.728Z,100689.00
2023-04-01T20:22:47.201Z,100698.31
2023-04-01T20:25:19.196Z,100704.59
2023-04-01T20:27:51.269Z,100707.66
2023-04-01T20:30:39.622Z,100712.66
2023-04-01T20:33:35.073Z,100724.56
2023-04-01T20:36:04.507Z,100730.88
2023-04-01T20:38:34.006Z,100738.34
2023-04-01T20:41:08.109Z,100741.91
2023-04-01T20:43:51.556Z,100687.34
2023-04-01T20:46:24.846Z,100759.22
2023-04-01T20:49:16.983Z,100763.53
2023-04-01T20:52:07.904Z,100760.97
2023-04-01T20:54:49.833Z,100762.09
2023-04-01T20:57:25.010Z,100762.97
2023-04-01T21:00:12.745Z,100776.28
2023-04-01T21:02:54.673Z,100771.13
2023-04-01T21:05:38.646Z,100783.00
2023-04-01T21:08:28.335Z,100772.97
2023-04-01T21:11:39.371Z,100794.75
2023-04-01T21:14:36.687Z,100814.50
2023-04-01T21:17:18.331Z,100817.22
2023-04-01T21:20:22.384Z,100824.47
2023-04-01T21:23:13.534Z,100834.06
2023-04-01T21:25:52.844Z,100841.34
2023-04-01T21:28:32.601Z,100844.81
2023-04-01T21:31:10.715Z,100841.34
2023-04-01T21:34:05.570Z,100850.53
2023-04-01T21:36:40.987Z,100853.94
2023-04-01T21:39:44.798Z,100853.09
2023-04-01T21:42:33.240Z,100864.38
2023-04-01T21:45:02.600Z,100864.53
2023-04-01T21:47:50.843Z,100873.94
2023-04-01T21:50:45.141Z,100890.13
2023-04-01T21:53:23.748Z,100895.13
2023-04-01T21:56:14.962Z,100892.22
2023-04-01T21:59:01.934Z,100903.00
2023-04-01T22:01:41.030Z,100901.28
2023-04-01T22:04:33.238Z,100908.72
2023-04-01T22:07:18.114Z,100909.59
2023-04-01T22:09:53.176Z,100925.38
2023-04-01T22:12:51.309Z,100927.97
2023-04-01T22:15:22.494Z,100902.38
2023-04-01T22:18:35.543Z,100944.03
2023-04-01T22:21:09.065Z,100942.34
2023-04-01T22:23:41.156Z,100950.91
2023-04-01T22:26:36.719Z,100955.13
2023-04-01T22:29:23.936Z,100959.84
2023-04-01T22:32:25.749Z,100965.41
2023-04-01T22:35:13.792Z,100959.69
2023-04-01T22:38:01.702Z,100973.13
2023-04-01T22:40:59.589Z,100985.13
2023-04-01T22:43:36.220Z,100977.34
2023-04-01T22:46:14.870Z,100994.91
2023-04-01T22:48:50.587Z,100990.34
2023-04-01T22:51:34.515Z,100997.50
2023-04-01T22:54:01.685Z,101000.09
2023-04-01T22:56:34.929Z,101003.66
2023-04-01T22:59:11.455Z,101012.53
2023-04-01T23:01:46.912Z,100997.28
2023-04-01T23:04:20.578Z,101000.34
2023-04-01T23:06:56.030Z,100762.31
2023-04-01T23:09:29.657Z,101019.97
2023-04-01T23:12:02.205Z,101036.53
2023-04-01T23:14:38.185Z,101033.94
2023-04-01T23:17:23.735Z,101032.22
2023-04-01T23:20:09.618Z,101038.63
2023-04-01T23:22:56.968Z,101048.78
2023-04-01T23:25:29.705Z,101055.44
2023-04-01T23:28:02.347Z,101063.84
2023-04-01T23:30:41.399Z,101063.25
2023-04-01T23:33:23.230Z,101069.16
2023-04-01T23:36:06.755Z,101054.63
2023-04-01T23:38:39.369Z,101076.47
2023-04-01T23:41:09.673Z,101065.25
2023-04-01T23:43:42.023Z,101087.22
2023-04-01T23:46:13.553Z,101085.47
2023-04-01T23:48:46.900Z,101103.88
2023-04-01T23:51:27.990Z,101107.44
2023-04-01T23:54:04.602Z,101115.59
2023-04-01T23:57:04.063Z,101118.53
2023-04-01T23:59:36.549Z,101130.53
